createdAt,value
2022-08-21T00:01:47.186Z,71.00
2022-08-21T00:04:22.154Z,71.10
2022-08-21T00:06:50.857Z,71.20
2022-08-21T00:09:19.958Z,71.00
2022-08-21T00:11:48.760Z,71.00
2022-08-21T00:14:17.686Z,71.20
2022-08-21T00:16:45.609Z,71.40
2022-08-21T00:19:13.674Z,71.50
2022-08-21T00:21:44.454Z,71.70
2022-08-21T00:24:13.365Z,72.00
2022-08-21T00:26:41.461Z,71.80
2022-08-21T00:29:09.329Z,72.10
2022-08-21T00:31:37.648Z,72.10
2022-08-21T00:34:05.923Z,72.60
2022-08-21T00:36:33.821Z,72.80
2022-08-21T00:39:03.769Z,72.80
2022-08-21T00:41:38.157Z,72.90
2022-08-21T00:44:07.106Z,73.00
2022-08-21T00:46:35.190Z,73.00
2022-08-21T00:49:03.173Z,73.10
2022-08-21T00:51:38.700Z,73.10
2022-08-21T00:54:15.476Z,73.10
2022-08-21T00:56:49.959Z,72.90
2022-08-21T00:59:20.427Z,73.10
2022-08-21T01:01:48.984Z,73.30
2022-08-21T01:04:17.273Z,73.70
2022-08-21T01:06:45.562Z,73.50
2022-08-21T01:09:16.004Z,73.70
2022-08-21T01:11:44.314Z,73.80
2022-08-21T01:14:13.335Z,74.20
2022-08-21T01:16:45.061Z,74.40
2022-08-21T01:19:13.858Z,74.60
2022-08-21T01:21:44.087Z,75.00
2022-08-21T01:24:13.317Z,74.50
2022-08-21T01:26:42.176Z,74.70
2022-08-21T01:29:17.260Z,74.40
2022-08-21T01:31:45.745Z,74.50
2022-08-21T01:34:14.294Z,74.90
2022-08-21T01:36:44.009Z,75.30
2022-08-21T01:39:12.053Z,75.70
2022-08-21T01:41:39.997Z,76.10
2022-08-21T01:44:07.891Z,75.90
2022-08-21T01:46:36.942Z,76.10
2022-08-21T01:49:05.486Z,76.50
2022-08-21T01:51:33.660Z,76.80
2022-08-21T01:54:03.002Z,77.00
2022-08-21T01:56:32.041Z,77.10
2022-08-21T01:58:59.908Z,77.20
2022-08-21T02:01:27.848Z,76.90
2022-08-21T02:03:55.778Z,77.20
2022-08-21T02:06:23.689Z,77.10
2022-08-21T02:08:52.143Z,77.20
2022-08-21T02:11:21.812Z,77.00
2022-08-21T02:13:49.750Z,76.90
2022-08-21T02:16:19.374Z,77.00
2022-08-21T02:18:47.814Z,76.90
2022-08-21T02:21:15.856Z,76.50
2022-08-21T02:23:43.751Z,76.60
2022-08-21T02:26:12.248Z,77.70
2022-08-21T02:28:41.611Z,77.30
2022-08-21T02:31:09.801Z,77.60
2022-08-21T02:33:37.752Z,77.90
2022-08-21T02:36:07.346Z,78.70
2022-08-21T02:38:38.870Z,78.60
2022-08-21T02:41:08.513Z,77.90
2022-08-21T02:43:36.609Z,78.00
2022-08-21T02:46:10.866Z,78.90
2022-08-21T02:48:39.760Z,79.40
2022-08-21T02:51:10.225Z,79.40
2022-08-21T02:53:38.729Z,79.00
2022-08-21T02:56:10.462Z,79.10
2022-08-21T02:58:41.137Z,79.40
2022-08-21T03:01:11.382Z,79.30
2022-08-21T03:03:41.860Z,80.10
2022-08-21T03:06:11.581Z,80.40
2022-08-21T03:08:40.427Z,80.60
2022-08-21T03:11:10.265Z,80.90
2022-08-21T03:13:39.913Z,80.60
2022-08-21T03:16:10.708Z,80.80
2022-08-21T03:18:39.208Z,80.60
2022-08-21T03:21:08.297Z,80.50
2022-08-21T03:23:36.505Z,80.40
2022-08-21T03:26:05.637Z,80.90
2022-08-21T03:28:36.241Z,81.00
2022-08-21T03:31:04.126Z,81.10
2022-08-21T03:33:33.405Z,80.90
2022-08-21T03:36:05.308Z,80.70
2022-08-21T03:38:35.246Z,81.00
2022-08-21T03:41:03.958Z,82.90
2022-08-21T03:43:32.669Z,83.40
2022-08-21T03:46:02.066Z,83.30
2022-08-21T03:48:29.971Z,82.50
2022-08-21T03:50:59.301Z,82.40
2022-08-21T03:53:27.617Z,82.20
2022-08-21T03:55:56.283Z,82.10
2022-08-21T03:58:26.036Z,82.00
2022-08-21T04:00:57.406Z,82.50
2022-08-21T04:03:26.414Z,82.20
2022-08-21T04:05:54.604Z,82.80
2022-08-21T04:08:24.057Z,83.00
2022-08-21T04:10:54.250Z,83.50
2022-08-21T04:13:22.691Z,82.40
2022-08-21T04:15:50.929Z,82.40
2022-08-21T04:18:19.258Z,82.70
2022-08-21T04:20:50.693Z,82.30
2022-08-21T04:23:23.679Z,82.30
2022-08-21T04:25:56.501Z,82.90
2022-08-21T04:28:28.775Z,83.40
2022-08-21T04:30:57.857Z,83.20
2022-08-21T04:33:26.260Z,84.00
2022-08-21T04:35:54.134Z,84.00
2022-08-21T04:38:22.422Z,84.30
2022-08-21T04:40:50.914Z,84.60
2022-08-21T04:43:22.395Z,85.00
2022-08-21T04:45:51.283Z,85.30
2022-08-21T04:48:21.192Z,85.30
2022-08-21T04:50:54.214Z,85.20
2022-08-21T04:53:26.359Z,85.40
2022-08-21T04:55:56.594Z,85.60
2022-08-21T04:58:28.138Z,86.20
2022-08-21T05:00:57.798Z,86.40
2022-08-21T05:03:26.129Z,86.60
2022-08-21T05:05:54.387Z,87.10
2022-08-21T05:08:25.879Z,86.90
2022-08-21T05:10:57.062Z,87.40
2022-08-21T05:13:29.948Z,88.20
2022-08-21T05:15:58.270Z,88.30
2022-08-21T05:18:26.438Z,88.60
2022-08-21T05:20:54.397Z,88.80
2022-08-21T05:23:22.345Z,88.90
2022-08-21T05:25:51.193Z,89.90
2022-08-21T05:28:19.189Z,90.20
2022-08-21T05:30:49.286Z,90.50
2022-08-21T05:33:17.258Z,90.80
2022-08-21T05:35:45.170Z,91.20
2022-08-21T05:38:17.826Z,91.30
2022-08-21T05:40:47.402Z,91.80
2022-08-21T05:43:15.466Z,92.20
2022-08-21T05:45:44.498Z,92.40
2022-08-21T05:48:16.515Z,92.70
2022-08-21T05:50:45.655Z,93.00
2022-08-21T05:53:14.723Z,93.30
2022-08-21T05:55:46.323Z,93.60
2022-08-21T05:58:15.487Z,93.90
2022-08-21T06:00:43.441Z,94.20
2022-08-21T06:03:18.050Z,94.20
2022-08-21T06:05:46.552Z,94.30
2022-08-21T06:08:15.932Z,94.40
2022-08-21T06:10:44.046Z,94.80
2022-08-21T06:13:12.626Z,95.00
2022-08-21T06:15:40.487Z,95.40
2022-08-21T06:18:08.868Z,95.50
2022-08-21T06:20:38.598Z,95.50
2022-08-21T06:23:06.739Z,95.50
2022-08-21T06:25:34.703Z,95.50
2022-08-21T06:28:04.348Z,95.60
2022-08-21T06:30:32.255Z,95.60
2022-08-21T06:33:00.407Z,95.70
2022-08-21T06:35:29.974Z,95.70
2022-08-21T06:37:59.778Z,96.00
2022-08-21T06:40:29.669Z,96.20
2022-08-21T06:42:58.386Z,96.20
2022-08-21T06:45:28.347Z,96.30
2022-08-21T06:48:00.720Z,96.40
2022-08-21T06:50:29.294Z,96.30
2022-08-21T06:53:07.937Z,96.40
2022-08-21T06:55:36.202Z,96.40
2022-08-21T06:58:05.379Z,96.40
2022-08-21T07:00:34.554Z,96.20
2022-08-21T07:03:02.741Z,96.40
2022-08-21T07:05:32.082Z,96.30
2022-08-21T07:08:00.448Z,96.30
2022-08-21T07:10:30.901Z,96.30
2022-08-21T07:13:00.094Z,96.00
2022-08-21T07:15:30.382Z,96.20
2022-08-21T07:17:59.096Z,96.60
2022-08-21T07:20:27.387Z,96.00
2022-08-21T07:22:55.815Z,96.00
2022-08-21T07:25:23.978Z,95.60
2022-08-21T07:27:53.213Z,95.70
2022-08-21T07:30:21.695Z,95.70
2022-08-21T07:32:50.795Z,95.70
2022-08-21T07:35:19.621Z,95.60
2022-08-21T07:37:47.997Z,95.40
2022-08-21T07:40:16.637Z,95.20
2022-08-21T07:42:47.050Z,95.00
2022-08-21T07:45:16.615Z,94.50
2022-08-21T07:47:44.503Z,94.50
2022-08-21T07:50:13.542Z,93.80
2022-08-21T07:52:42.732Z,93.80
2022-08-21T07:55:13.190Z,93.50
2022-08-21T07:57:41.309Z,93.60
2022-08-21T08:00:12.276Z,93.40
2022-08-21T08:02:42.134Z,93.20
2022-08-21T08:05:12.698Z,93.10
2022-08-21T08:07:41.146Z,93.00
2022-08-21T08:10:10.435Z,93.30
2022-08-21T08:12:40.615Z,92.60
2022-08-21T08:15:13.394Z,92.70
2022-08-21T08:17:43.074Z,92.70
2022-08-21T08:20:17.990Z,92.60
2022-08-21T08:22:50.162Z,92.40
2022-08-21T08:25:19.288Z,92.60
2022-08-21T08:27:47.183Z,92.60
2022-08-21T08:30:17.311Z,92.10
2022-08-21T08:32:46.861Z,91.60
2022-08-21T08:35:15.639Z,91.10
2022-08-21T08:37:46.764Z,90.80
2022-08-21T08:40:25.578Z,90.50
2022-08-21T08:42:53.449Z,90.40
2022-08-21T08:45:25.178Z,90.20
2022-08-21T08:47:59.962Z,90.10
2022-08-21T08:50:33.465Z,90.20
2022-08-21T08:53:06.310Z,90.30
2022-08-21T08:55:37.751Z,89.60
2022-08-21T08:58:06.375Z,88.80
2022-08-21T09:00:35.283Z,88.80
2022-08-21T09:03:05.435Z,88.00
2022-08-21T09:05:44.522Z,87.70
2022-08-21T09:08:50.008Z,88.30
2022-08-21T09:11:28.163Z,89.50
2022-08-21T09:14:10.123Z,87.70
2022-08-21T09:16:47.162Z,87.50
2022-08-21T09:19:29.093Z,85.60
2022-08-21T09:22:05.376Z,84.90
2022-08-21T09:24:36.498Z,84.20
2022-08-21T09:27:10.259Z,83.30
2022-08-21T09:29:41.159Z,84.00
2022-08-21T09:32:15.421Z,83.60
2022-08-21T09:34:58.527Z,83.40
2022-08-21T09:37:27.196Z,83.30
2022-08-21T09:39:55.140Z,83.40
2022-08-21T09:42:26.591Z,83.40
2022-08-21T09:45:11.393Z,83.90
2022-08-21T09:47:39.373Z,83.00
2022-08-21T09:50:16.032Z,82.90
2022-08-21T09:52:52.851Z,82.30
2022-08-21T09:55:43.250Z,81.30
2022-08-21T09:58:12.289Z,80.70
2022-08-21T10:00:40.975Z,79.50
2022-08-21T10:03:21.295Z,80.00
2022-08-21T10:05:57.402Z,78.50
2022-08-21T10:08:27.756Z,78.90
2022-08-21T10:10:59.344Z,78.20
2022-08-21T10:13:36.014Z,77.60
2022-08-21T10:16:26.624Z,75.90
2022-08-21T10:19:04.633Z,75.30
2022-08-21T10:21:42.882Z,76.50
2022-08-21T10:24:21.368Z,75.90
2022-08-21T10:27:07.074Z,76.30
2022-08-21T10:29:46.706Z,75.40
2022-08-21T10:32:26.848Z,75.50
2022-08-21T10:35:04.141Z,75.80
2022-08-21T10:37:50.959Z,75.00
2022-08-21T10:40:27.161Z,73.60
2022-08-21T10:43:07.434Z,73.20
2022-08-21T10:45:48.201Z,72.60
2022-08-21T10:48:24.505Z,73.50
2022-08-21T10:50:56.328Z,72.60
2022-08-21T10:53:38.303Z,71.80
2022-08-21T10:56:17.007Z,71.80
2022-08-21T10:58:51.821Z,71.20
2022-08-21T11:01:25.692Z,71.10
2022-08-21T11:04:01.187Z,70.30
2022-08-21T11:06:34.430Z,71.40
2022-08-21T11:09:16.134Z,71.70
2022-08-21T11:11:59.084Z,71.50
2022-08-21T11:14:37.138Z,71.10
2022-08-21T11:17:12.006Z,69.90
2022-08-21T11:19:49.965Z,68.70
2022-08-21T11:22:23.313Z,68.50
2022-08-21T11:24:58.818Z,68.40
2022-08-21T11:27:30.453Z,68.00
2022-08-21T11:30:02.429Z,67.80
2022-08-21T11:32:53.152Z,67.50
2022-08-21T11:35:30.929Z,67.30
2022-08-21T11:38:10.397Z,67.00
2022-08-21T11:40:56.455Z,66.40
2022-08-21T11:43:33.457Z,66.00
2022-08-21T11:46:12.352Z,66.40
2022-08-21T11:48:48.680Z,66.60
2022-08-21T11:51:22.747Z,66.90
2022-08-21T11:53:56.065Z,66.00
2022-08-21T11:56:29.069Z,64.80
2022-08-21T11:59:01.419Z,65.00
2022-08-21T12:01:37.025Z,65.40
2022-08-21T12:04:08.944Z,64.90
2022-08-21T12:06:38.912Z,63.90
2022-08-21T12:09:09.595Z,63.80
2022-08-21T12:11:49.200Z,64.90
2022-08-21T12:14:19.592Z,65.00
2022-08-21T12:16:49.845Z,65.00
2022-08-21T12:19:32.566Z,63.50
2022-08-21T12:22:10.819Z,62.20
2022-08-21T12:24:41.260Z,61.40
2022-08-21T12:27:26.457Z,61.30
2022-08-21T12:29:57.438Z,61.00
2022-08-21T12:32:29.870Z,60.70
2022-08-21T12:35:04.535Z,60.40
2022-08-21T12:37:43.443Z,60.80
2022-08-21T12:40:20.166Z,60.30
2022-08-21T12:42:58.620Z,60.40
2022-08-21T12:45:32.747Z,60.70
2022-08-21T12:48:06.599Z,60.30
2022-08-21T12:50:40.167Z,59.30
2022-08-21T12:53:18.524Z,59.00
2022-08-21T12:55:48.869Z,58.50
2022-08-21T12:58:22.262Z,58.10
2022-08-21T13:00:52.604Z,57.70
2022-08-21T13:03:21.021Z,57.50
2022-08-21T13:05:49.244Z,57.20
2022-08-21T13:08:17.199Z,55.80
2022-08-21T13:10:47.185Z,55.20
2022-08-21T13:13:28.099Z,55.80
2022-08-21T13:16:00.503Z,56.00
2022-08-21T13:18:32.886Z,55.70
2022-08-21T13:21:09.555Z,55.10
2022-08-21T13:23:37.706Z,53.90
2022-08-21T13:26:18.530Z,52.70
2022-08-21T13:28:49.313Z,52.00
2022-08-21T13:31:22.880Z,52.60
2022-08-21T13:33:52.438Z,52.30
2022-08-21T13:36:27.012Z,51.90
2022-08-21T13:38:55.989Z,52.60
2022-08-21T13:41:28.351Z,51.90
2022-08-21T13:44:02.845Z,51.80
2022-08-21T13:46:36.291Z,51.50
2022-08-21T13:49:06.968Z,51.00
2022-08-21T13:51:35.078Z,51.10
2022-08-21T13:54:03.870Z,50.10
2022-08-21T13:56:33.891Z,50.60
2022-08-21T13:59:04.827Z,50.50
2022-08-21T14:01:35.397Z,50.80
2022-08-21T14:04:07.006Z,50.00
2022-08-21T14:06:37.696Z,48.90
2022-08-21T14:09:10.438Z,47.70
2022-08-21T14:11:39.457Z,46.60
2022-08-21T14:14:22.159Z,46.00
2022-08-21T14:16:56.662Z,44.40
2022-08-21T14:19:27.602Z,46.10
2022-08-21T14:21:56.468Z,44.90
2022-08-21T14:24:36.591Z,43.90
2022-08-21T14:27:07.708Z,44.50
2022-08-21T14:29:39.007Z,45.10
2022-08-21T14:32:21.650Z,44.20
2022-08-21T14:34:52.809Z,45.20
2022-08-21T14:37:22.629Z,45.30
2022-08-21T14:39:50.525Z,45.10
2022-08-21T14:42:18.386Z,45.00
2022-08-21T14:44:47.851Z,45.10
2022-08-21T14:47:15.946Z,45.40
2022-08-21T14:49:43.836Z,45.40
2022-08-21T14:52:11.686Z,45.80
2022-08-21T14:54:39.593Z,44.80
2022-08-21T14:57:10.409Z,45.20
2022-08-21T14:59:39.734Z,45.60
2022-08-21T15:02:09.934Z,45.20
2022-08-21T15:04:37.935Z,45.10
2022-08-21T15:07:06.254Z,45.00
2022-08-21T15:09:34.190Z,44.60
2022-08-21T15:12:03.828Z,44.60
2022-08-21T15:14:34.512Z,43.80
2022-08-21T15:17:04.260Z,44.00
2022-08-21T15:19:33.586Z,43.80
2022-08-21T15:22:01.840Z,44.60
2022-08-21T15:24:30.557Z,45.00
2022-08-21T15:27:01.020Z,45.00
2022-08-21T15:29:33.428Z,44.20
2022-08-21T15:32:03.758Z,44.40
2022-08-21T15:34:33.825Z,44.20
2022-08-21T15:37:01.687Z,43.70
2022-08-21T15:39:37.206Z,44.10
2022-08-21T15:42:11.265Z,44.30
2022-08-21T15:44:40.721Z,44.20
2022-08-21T15:47:09.176Z,44.10
2022-08-21T15:49:38.486Z,43.80
2022-08-21T15:52:06.587Z,44.00
2022-08-21T15:54:34.500Z,44.00
2022-08-21T15:57:02.442Z,43.40
2022-08-21T15:59:34.307Z,43.80
2022-08-21T16:02:02.215Z,43.70
2022-08-21T16:04:30.307Z,44.00
2022-08-21T16:07:05.470Z,44.40
2022-08-21T16:09:37.015Z,44.60
2022-08-21T16:12:06.449Z,44.40
2022-08-21T16:14:37.043Z,44.00
2022-08-21T16:17:05.866Z,44.10
2022-08-21T16:19:34.817Z,44.20
2022-08-21T16:22:04.683Z,45.30
2022-08-21T16:24:32.781Z,45.10
2022-08-21T16:27:02.622Z,44.90
2022-08-21T16:29:36.610Z,45.20
2022-08-21T16:32:06.754Z,45.40
2022-08-21T16:34:35.067Z,46.00
2022-08-21T16:37:04.456Z,46.10
2022-08-21T16:39:32.706Z,46.60
2022-08-21T16:42:00.654Z,47.00
2022-08-21T16:44:30.143Z,47.00
2022-08-21T16:46:59.552Z,46.90
2022-08-21T16:49:27.844Z,47.40
2022-08-21T16:51:55.757Z,47.30
2022-08-21T16:54:25.381Z,47.10
2022-08-21T16:56:54.398Z,47.40
2022-08-21T16:59:22.540Z,47.50
2022-08-21T17:01:50.644Z,47.60
2022-08-21T17:04:18.550Z,47.50
2022-08-21T17:06:46.542Z,47.70
2022-08-21T17:09:14.465Z,48.00
2022-08-21T17:11:47.639Z,47.90
2022-08-21T17:14:19.511Z,47.70
2022-08-21T17:16:51.454Z,47.90
2022-08-21T17:19:20.140Z,47.70
2022-08-21T17:21:48.022Z,48.40
2022-08-21T17:24:16.139Z,48.40
2022-08-21T17:26:46.199Z,48.40
2022-08-21T17:29:15.944Z,48.70
2022-08-21T17:31:45.165Z,48.80
2022-08-21T17:34:15.635Z,48.90
2022-08-21T17:36:43.559Z,49.00
2022-08-21T17:39:12.862Z,49.20
2022-08-21T17:41:54.466Z,49.60
2022-08-21T17:44:26.305Z,49.70
2022-08-21T17:46:54.633Z,50.20
2022-08-21T17:49:22.570Z,50.40
2022-08-21T17:51:50.511Z,50.70
2022-08-21T17:54:18.493Z,50.90
2022-08-21T17:56:46.593Z,51.10
2022-08-21T17:59:16.484Z,51.40
2022-08-21T18:01:48.072Z,51.80
2022-08-21T18:04:17.362Z,51.90
2022-08-21T18:06:46.015Z,52.40
2022-08-21T18:09:14.355Z,52.70
2022-08-21T18:11:44.071Z,52.80
2022-08-21T18:14:13.194Z,53.00
2022-08-21T18:16:42.780Z,53.00
2022-08-21T18:19:15.892Z,53.10
2022-08-21T18:21:44.143Z,53.20
2022-08-21T18:24:12.053Z,53.00
2022-08-21T18:26:41.078Z,53.00
2022-08-21T18:29:12.332Z,53.20
2022-08-21T18:31:43.609Z,53.50
2022-08-21T18:34:20.102Z,53.30
2022-08-21T18:36:48.376Z,53.70
2022-08-21T18:39:35.384Z,53.60
2022-08-21T18:42:06.663Z,53.70
2022-08-21T18:44:34.793Z,53.80
2022-08-21T18:47:11.339Z,53.90
2022-08-21T18:49:40.159Z,53.60
2022-08-21T18:52:09.906Z,54.10
2022-08-21T18:57:29.182Z,54.50
2022-08-21T18:59:57.530Z,54.80
2022-08-21T19:02:27.962Z,55.20
2022-08-21T19:04:56.026Z,55.50
2022-08-21T19:07:24.181Z,55.60
2022-08-21T19:10:20.929Z,55.70
2022-08-21T19:12:41.982Z,55.60
2022-08-21T19:15:13.752Z,55.70
2022-08-21T19:17:43.566Z,55.70
2022-08-21T19:20:25.535Z,55.90
2022-08-21T19:22:55.350Z,55.90
2022-08-21T19:28:16.805Z,56.30
2022-08-21T19:30:52.106Z,56.50
2022-08-21T19:33:26.203Z,56.60
2022-08-21T19:35:54.412Z,56.70
2022-08-21T19:38:22.666Z,56.80
2022-08-21T19:40:51.541Z,56.80
2022-08-21T19:43:22.544Z,56.90
2022-08-21T19:45:53.762Z,56.90
2022-08-21T19:48:23.979Z,57.20
2022-08-21T19:50:52.234Z,57.30
2022-08-21T19:53:20.658Z,57.30
2022-08-21T19:55:49.523Z,57.30
2022-08-21T19:58:29.444Z,57.20
2022-08-21T20:00:57.512Z,57.20
2022-08-21T20:03:26.864Z,57.10
2022-08-21T20:05:54.772Z,57.30
2022-08-21T20:08:23.614Z,57.40
2022-08-21T20:10:58.023Z,57.80
2022-08-21T20:13:26.613Z,58.00
2022-08-21T20:15:55.526Z,58.10
2022-08-21T20:18:26.858Z,58.20
2022-08-21T20:20:56.515Z,58.30
2022-08-21T20:23:29.945Z,58.20
2022-08-21T20:25:58.757Z,58.30
2022-08-21T20:28:27.038Z,58.10
2022-08-21T20:30:56.639Z,58.50
2022-08-21T20:33:24.634Z,58.70
2022-08-21T20:35:52.651Z,58.80
2022-08-21T20:38:22.681Z,58.80
2022-08-21T20:40:55.444Z,58.90
2022-08-21T20:43:24.515Z,59.10
2022-08-21T20:45:52.516Z,59.10
2022-08-21T20:48:25.717Z,59.10
2022-08-21T20:51:09.139Z,59.00
2022-08-21T20:53:47.262Z,59.20
2022-08-21T20:56:27.286Z,59.20
2022-08-21T20:59:04.322Z,59.40
2022-08-21T21:01:35.269Z,60.00
2022-08-21T21:04:05.539Z,60.30
2022-08-21T21:06:39.039Z,60.40
2022-08-21T21:09:14.554Z,60.30
2022-08-21T21:14:42.684Z,60.30
2022-08-21T21:17:25.729Z,60.40
2022-08-21T21:20:01.241Z,60.30
2022-08-21T21:22:35.283Z,60.60
2022-08-21T21:25:14.123Z,60.70
2022-08-21T21:27:49.095Z,60.90
2022-08-21T21:30:21.812Z,61.00
2022-08-21T21:32:50.141Z,60.90
2022-08-21T21:35:32.765Z,61.10
2022-08-21T21:38:12.032Z,61.30
2022-08-21T21:40:49.918Z,61.50
2022-08-21T21:43:29.845Z,61.40
2022-08-21T21:46:16.812Z,61.50
2022-08-21T21:49:03.011Z,61.50
2022-08-21T21:51:43.458Z,61.70
2022-08-21T21:54:20.383Z,61.60
2022-08-21T21:57:03.172Z,61.80
2022-08-21T21:59:52.225Z,61.80
2022-08-21T22:02:32.855Z,62.00
2022-08-21T22:05:07.286Z,62.20
2022-08-21T22:07:41.164Z,63.20
2022-08-21T22:10:19.630Z,62.90
2022-08-21T22:13:11.075Z,63.00
2022-08-21T22:15:41.342Z,63.20
2022-08-21T22:18:11.841Z,63.40
2022-08-21T22:20:44.146Z,63.70
2022-08-21T22:23:17.274Z,63.90
2022-08-21T22:25:51.188Z,64.30
2022-08-21T22:28:25.928Z,65.00
2022-08-21T22:30:57.537Z,64.50
2022-08-21T22:33:27.011Z,64.50
2022-08-21T22:35:58.808Z,64.40
2022-08-21T22:38:33.769Z,64.30
2022-08-21T22:41:14.935Z,64.50
2022-08-21T22:43:56.559Z,65.20
2022-08-21T22:46:31.728Z,64.80
2022-08-21T22:49:05.298Z,64.90
2022-08-21T22:51:38.858Z,64.70
2022-08-21T22:54:16.774Z,64.70
2022-08-21T22:57:00.545Z,64.70
2022-08-21T23:02:29.830Z,65.00
2022-08-21T23:05:00.331Z,65.50
2022-08-21T23:07:35.219Z,65.80
2022-08-21T23:10:21.039Z,66.10
2022-08-21T23:12:52.147Z,66.40
2022-08-21T23:15:24.072Z,66.30
2022-08-21T23:18:01.887Z,66.10
2022-08-21T23:20:39.570Z,66.10
2022-08-21T23:23:15.359Z,66.10
2022-08-21T23:26:17.670Z,66.10
2022-08-21T23:29:06.090Z,66.40
2022-08-21T23:31:46.055Z,66.50
2022-08-21T23:34:22.790Z,66.90
2022-08-21T23:37:48.419Z,67.10
2022-08-21T23:40:39.057Z,67.60
2022-08-21T23:43:33.126Z,68.10
2022-08-21T23:46:11.336Z,68.30
2022-08-21T23:48:49.339Z,68.10
2022-08-21T23:51:28.574Z,67.70
2022-08-21T23:54:07.117Z,67.80
2022-08-21T23:56:51.438Z,67.70
2022-08-21T23:59:31.809Z,68.20
